Time;durP1;ratioP1;P1;durP2;ratioP2;P2;SDS_P1;SDS_P2;PMS_P1;PMS_P2;Temp;Humidity;BMP_temperature;BMP_pressure;BME280_temperature;BME280_humidity;BME280_pressure;Samples;Min_cycle;Max_cycle;Signal;HPM_P1;HPM_P2
2021/08/01 00:00:13;;;;;;;26.88;7.60;;;;;;;20.51;51.64;98624.06;5033093;28;20132;-72
2021/08/01 00:02:39;;;;;;;18.67;7.57;;;;;;;20.48;52.07;98635.09;5036936;28;20056;-72
2021/08/01 00:05:06;;;;;;;17.37;7.10;;;;;;;20.55;51.79;98640.78;5048969;28;20119;-73
2021/08/01 00:07:34;;;;;;;21.10;7.53;;;;;;;20.23;52.54;98636.25;5038202;28;20128;-73
2021/08/01 00:10:01;;;;;;;19.15;7.90;;;;;;;19.98;53.05;98642.16;5033116;28;20421;-73
2021/08/01 00:12:28;;;;;;;20.50;8.23;;;;;;;19.77;54.13;98641.66;5035885;28;20056;-73
2021/08/01 00:14:55;;;;;;;22.27;7.88;;;;;;;19.66;54.46;98639.47;5023488;28;20057;-73
2021/08/01 00:17:21;;;;;;;22.13;8.27;;;;;;;19.81;53.85;98643.34;5041084;28;20491;-73
2021/08/01 00:19:47;;;;;;;16.23;7.73;;;;;;;20.04;53.25;98641.84;5036920;28;20051;-73
2021/08/01 00:22:13;;;;;;;19.30;7.55;;;;;;;20.02;52.83;98631.09;5019831;28;20815;-73
2021/08/01 00:24:39;;;;;;;20.17;7.75;;;;;;;20.19;52.77;98638.16;5024633;28;20053;-73
2021/08/01 00:27:06;;;;;;;21.65;7.30;;;;;;;20.25;52.51;98650.56;5034673;28;20041;-73
2021/08/01 00:29:33;;;;;;;19.15;7.20;;;;;;;20.35;52.17;98645.56;5037634;28;20045;-73
2021/08/01 00:32:00;;;;;;;21.33;7.07;;;;;;;20.33;52.08;98651.47;5036370;28;20049;-73
2021/08/01 00:34:27;;;;;;;24.20;8.32;;;;;;;20.16;52.64;98646.41;5040092;28;20051;-73
2021/08/01 00:36:54;;;;;;;24.77;7.75;;;;;;;20.11;52.69;98644.72;5034290;28;20516;-73
2021/08/01 00:39:20;;;;;;;21.45;7.40;;;;;;;19.90;53.38;98654.22;5025290;28;20099;-73
2021/08/01 00:41:46;;;;;;;26.90;8.20;;;;;;;19.84;53.89;98652.94;5034842;28;20440;-73
2021/08/01 00:44:12;;;;;;;29.20;7.55;;;;;;;19.70;54.16;98647.88;5040099;28;20083;-73
2021/08/01 00:46:41;;;;;;;24.47;7.90;;;;;;;19.69;54.19;98660.13;5030911;28;20049;-74
2021/08/01 00:49:07;;;;;;;24.67;8.13;;;;;;;19.49;54.95;98657.34;5039794;28;20069;-73
2021/08/01 00:51:33;;;;;;;24.90;7.47;;;;;;;19.47;54.98;98659.69;5037042;28;21456;-73
2021/08/01 00:54:00;;;;;;;19.20;7.32;;;;;;;19.54;54.94;98656.28;5041694;28;20045;-72
2021/08/01 00:56:26;;;;;;;19.25;6.95;;;;;;;19.64;54.52;98652.09;5042739;28;20080;-73
2021/08/01 00:58:53;;;;;;;22.75;7.70;;;;;;;19.77;53.82;98666.63;5043840;28;20045;-73
2021/08/01 01:01:24;;;;;;;22.23;7.43;;;;;;;19.66;54.41;98652.53;5039456;28;20529;-73
2021/08/01 01:03:59;;;;;;;20.30;7.43;;;;;;;19.74;54.17;98662.59;5039552;28;20049;-73
2021/08/01 01:06:38;;;;;;;20.92;7.80;;;;;;;19.86;53.77;98658.91;5030368;28;20042;-73
2021/08/01 01:09:12;;;;;;;21.02;7.82;;;;;;;19.89;53.72;98658.16;5017730;28;20075;-71
2021/08/01 01:11:58;;;;;;;21.25;6.95;;;;;;;19.95;53.28;98659.50;5033281;28;20497;-73
2021/08/01 01:14:29;;;;;;;21.48;7.20;;;;;;;20.08;53.03;98662.13;5048610;28;20045;-72
2021/08/01 01:17:05;;;;;;;25.60;7.78;;;;;;;20.16;52.72;98660.28;5044417;28;20052;-72
2021/08/01 01:19:59;;;;;;;15.88;6.97;;;;;;;20.03;52.85;98656.88;5036187;28;20049;-73
2021/08/01 01:22:37;;;;;;;24.50;7.15;;;;;;;20.12;52.79;98671.31;5022835;28;20053;-72
2021/08/01 01:25:50;;;;;;;18.27;6.97;;;;;;;20.20;52.17;98666.69;5068795;28;20043;-73
2021/08/01 01:28:24;;;;;;;17.23;7.03;;;;;;;20.19;52.40;98673.41;5077707;28;20079;-72
2021/08/01 01:30:59;;;;;;;18.63;7.07;;;;;;;19.81;53.99;98682.19;5048207;28;20128;-73
2021/08/01 01:33:29;;;;;;;28.48;7.82;;;;;;;19.34;55.09;98672.84;5038471;28;20064;-72
2021/08/01 01:36:00;;;;;;;18.02;7.07;;;;;;;19.17;55.89;98687.09;5041299;28;20478;-72
2021/08/01 01:38:29;;;;;;;19.00;7.07;;;;;;;19.30;55.24;98685.81;5024570;28;20456;-72
2021/08/01 01:41:17;;;;;;;24.75;7.78;;;;;;;19.49;54.95;98684.25;5037389;28;20099;-72
2021/08/01 01:43:53;;;;;;;17.85;7.40;;;;;;;19.61;54.18;98678.59;5045680;28;20049;-72
2021/08/01 01:46:21;;;;;;;20.98;6.80;;;;;;;19.46;54.76;98674.72;5049178;28;20053;-72
2021/08/01 01:48:49;;;;;;;20.95;7.30;;;;;;;19.51;54.91;98690.22;5053441;28;20053;-72
2021/08/01 01:51:17;;;;;;;15.98;7.05;;;;;;;19.47;54.91;98676.31;5053057;28;20053;-73
2021/08/01 01:53:46;;;;;;;19.42;7.28;;;;;;;19.59;54.22;98675.38;5057788;28;20049;-72
2021/08/01 01:56:13;;;;;;;23.20;7.68;;;;;;;19.66;54.24;98663.63;5051483;28;20041;-72
2021/08/01 01:58:40;;;;;;;17.65;7.53;;;;;;;19.82;53.51;98675.47;5043616;28;20049;-73
2021/08/01 02:01:08;;;;;;;23.10;8.18;;;;;;;19.91;53.31;98685.56;5042422;28;20049;-73
2021/08/01 02:03:35;;;;;;;19.60;6.95;;;;;;;19.90;53.26;98687.50;5027360;28;20111;-72
2021/08/01 02:06:04;;;;;;;20.63;6.47;;;;;;;20.01;53.19;98684.97;5047678;28;20098;-72
2021/08/01 02:09:12;;;;;;;19.23;6.88;;;;;;;20.04;52.89;98683.44;5043309;28;20041;-73
2021/08/01 02:11:46;;;;;;;16.92;6.68;;;;;;;20.06;53.07;98675.56;5043617;28;20055;-73
2021/08/01 02:14:26;;;;;;;28.52;7.28;;;;;;;20.01;53.23;98684.19;5037523;28;20052;-72
2021/08/01 02:16:59;;;;;;;18.77;7.05;;;;;;;19.97;52.97;98678.56;5040914;28;20265;-73
2021/08/01 02:19:27;;;;;;;19.45;6.75;;;;;;;19.97;53.06;98681.34;5040234;28;20415;-73
2021/08/01 02:21:56;;;;;;;18.52;7.15;;;;;;;19.91;53.59;98680.00;5027606;28;20147;-72
2021/08/01 02:24:24;;;;;;;18.55;6.53;;;;;;;19.97;53.35;98684.88;5037591;28;20045;-73
2021/08/01 02:26:51;;;;;;;22.90;7.07;;;;;;;19.97;53.28;98684.09;5038444;28;20071;-73
2021/08/01 02:29:21;;;;;;;27.80;7.03;;;;;;;19.78;54.02;98691.22;5033654;28;20344;-73
2021/08/01 02:31:48;;;;;;;17.90;6.97;;;;;;;19.61;54.44;98689.66;5034236;28;20046;-73
2021/08/01 02:34:15;;;;;;;19.48;6.68;;;;;;;19.45;54.90;98697.22;5042995;28;20052;-73
2021/08/01 02:36:42;;;;;;;18.05;7.15;;;;;;;19.31;54.97;98692.19;5039302;28;20041;-73
2021/08/01 02:39:09;;;;;;;27.20;7.60;;;;;;;19.34;55.44;98697.78;5036462;28;20044;-73
2021/08/01 02:41:41;;;;;;;26.85;9.27;;;;;;;19.47;55.19;98698.50;5047420;28;20536;-73
2021/08/01 02:44:17;;;;;;;20.73;7.80;;;;;;;19.46;55.42;98696.06;5036459;28;20140;-72
2021/08/01 02:46:45;;;;;;;20.48;10.73;;;;;;;19.54;55.14;98692.31;5013923;28;20624;-73
2021/08/01 02:49:18;;;;;;;21.20;9.85;;;;;;;19.56;54.80;98695.50;5036382;28;20049;-72
2021/08/01 02:51:49;;;;;;;19.63;8.45;;;;;;;19.61;54.64;98689.66;5043647;28;20041;-72
2021/08/01 02:54:16;;;;;;;19.00;7.38;;;;;;;19.56;55.25;98706.59;5023863;28;20037;-73
2021/08/01 02:56:46;;;;;;;20.08;7.55;;;;;;;19.40;55.63;98699.13;5038679;28;20076;-72
2021/08/01 02:59:13;;;;;;;17.13;7.22;;;;;;;19.38;55.60;98697.88;5034866;28;20072;-72
2021/08/01 03:01:40;;;;;;;24.37;7.27;;;;;;;19.18;56.44;98705.31;5044758;28;20413;-72
2021/08/01 03:04:06;;;;;;;23.35;8.20;;;;;;;19.00;57.29;98705.69;5043659;28;20056;-72
2021/08/01 03:06:34;;;;;;;18.10;8.20;;;;;;;18.99;57.62;98718.75;5033182;28;20223;-73
2021/08/01 03:09:03;;;;;;;16.25;8.10;;;;;;;19.09;56.91;98711.06;5010825;28;20036;-73
2021/08/01 03:11:32;;;;;;;26.15;7.72;;;;;;;19.10;57.23;98716.25;5026754;28;20041;-73
2021/08/01 03:14:01;;;;;;;22.15;8.45;;;;;;;19.05;57.77;98722.06;5036134;28;20041;-72
2021/08/01 03:16:27;;;;;;;23.27;8.18;;;;;;;18.91;58.00;98716.13;5036467;28;20045;-74
2021/08/01 03:18:54;;;;;;;17.95;8.00;;;;;;;18.93;58.25;98713.81;5035172;28;20069;-74
2021/08/01 03:21:20;;;;;;;20.17;8.35;;;;;;;18.99;57.72;98717.94;5034071;28;20077;-74
2021/08/01 03:23:51;;;;;;;20.73;8.63;;;;;;;18.93;58.43;98722.91;5038919;28;20049;-74
2021/08/01 03:26:24;;;;;;;22.85;8.73;;;;;;;18.90;58.97;98726.41;5053888;28;20063;-73
2021/08/01 03:28:50;;;;;;;19.17;8.13;;;;;;;18.93;58.64;98725.69;5050226;28;20056;-74
2021/08/01 03:31:18;;;;;;;17.98;7.93;;;;;;;19.13;57.62;98718.28;5058323;28;20037;-74
2021/08/01 03:33:47;;;;;;;19.58;8.02;;;;;;;19.32;57.43;98719.50;5056489;28;20109;-72
2021/08/01 03:36:14;;;;;;;21.42;7.80;;;;;;;19.42;57.32;98720.91;5045150;28;20106;-74
2021/08/01 03:39:09;;;;;;;19.58;7.32;;;;;;;19.47;57.22;98720.66;5037458;28;20513;-73
2021/08/01 03:41:35;;;;;;;21.55;8.68;;;;;;;19.50;57.06;98724.66;5046059;28;20068;-72
2021/08/01 03:44:02;;;;;;;23.20;8.38;;;;;;;19.58;56.64;98720.06;5039788;28;20046;-71
2021/08/01 03:46:30;;;;;;;18.80;7.53;;;;;;;19.56;56.74;98721.25;5030816;28;20080;-73
2021/08/01 03:48:55;;;;;;;;;;;;;;;19.54;57.09;98720.81;5043590;28;20053;-73
2021/08/01 03:51:22;;;;;;;21.00;8.00;;;;;;;19.59;56.63;98718.91;5030716;28;19933;-73
2021/08/01 03:53:48;;;;;;;15.90;7.53;;;;;;;19.60;56.71;98728.88;5032802;28;20390;-73
2021/08/01 03:56:13;;;;;;;21.88;8.07;;;;;;;19.54;57.23;98739.41;5034109;28;20060;-72
2021/08/01 03:58:40;;;;;;;31.75;7.50;;;;;;;19.56;57.17;98732.34;5034878;28;20072;-72
2021/08/01 04:01:05;;;;;;;19.00;8.02;;;;;;;19.48;58.09;98743.63;5016554;28;20521;-72
2021/08/01 04:03:33;;;;;;;21.55;7.88;;;;;;;19.51;57.55;98734.56;5047286;28;20592;-72
2021/08/01 04:05:58;;;;;;;;;;;;;;;19.59;57.55;98739.13;5029101;28;20052;-73
2021/08/01 04:08:25;;;;;;;19.38;7.45;;;;;;;19.60;57.21;98735.19;5036185;28;20369;-73
2021/08/01 04:10:51;;;;;;;21.25;7.68;;;;;;;19.60;57.00;98735.19;5040415;28;20095;-73
2021/08/01 04:13:17;;;;;;;29.08;7.97;;;;;;;19.60;57.10;98743.50;5041029;28;20040;-72
2021/08/01 04:15:45;;;;;;;15.57;7.00;;;;;;;19.51;57.79;98740.94;5035216;28;20060;-72
2021/08/01 04:18:11;;;;;;;25.63;7.80;;;;;;;19.68;57.13;98750.84;5042456;28;20055;-73
2021/08/01 04:20:39;;;;;;;25.50;8.43;;;;;;;19.67;57.16;98742.88;5036838;28;20041;-72
2021/08/01 04:23:04;;;;;;;;;;;;;;;19.79;57.24;98748.28;5042769;28;20045;-72
2021/08/01 04:25:30;;;;;;;;;;;;;;;19.86;57.26;98749.59;5044152;28;19935;-73
2021/08/01 04:27:56;;;;;;;;;;;;;;;19.81;57.24;98743.19;5021938;28;19925;-73
2021/08/01 04:30:22;;;;;;;;;;;;;;;19.88;57.43;98742.53;5039935;28;19928;-73
2021/08/01 04:32:48;;;;;;;;;;;;;;;19.93;56.99;98742.28;5034399;28;20297;-73
2021/08/01 04:35:14;;;;;;;;;;;;;;;20.00;56.89;98744.41;5033882;28;19925;-73
2021/08/01 04:37:41;;;;;;;;;;;;;;;20.05;56.60;98740.53;5035138;28;19935;-74
2021/08/01 04:40:08;;;;;;;;;;;;;;;20.11;56.84;98737.09;5039896;28;19924;-72
2021/08/01 04:42:34;;;;;;;;;;;;;;;20.09;56.56;98735.84;5043259;28;19925;-73
2021/08/01 04:44:59;;;;;;;;;;;;;;;20.08;56.36;98739.78;5040101;28;20450;-72
2021/08/01 04:47:25;;;;;;;;;;;;;;;20.12;56.43;98735.94;5047689;28;19924;-73
2021/08/01 04:49:52;;;;;;;;;;;;;;;20.23;55.95;98746.47;5041189;28;20412;-74
2021/08/01 04:52:19;;;;;;;;;;;;;;;20.18;56.02;98744.78;5042444;28;19925;-73
2021/08/01 04:54:46;;;;;;;;;;;;;;;20.22;55.84;98736.53;5043759;28;19948;-74
2021/08/01 04:57:12;;;;;;;;;;;;;;;20.26;55.42;98740.16;5048667;28;19971;-73
2021/08/01 04:59:38;;;;;;;;;;;;;;;20.29;55.51;98735.84;5038716;28;20586;-73
2021/08/01 05:02:04;;;;;;;;;;;;;;;20.40;55.17;98736.84;5036837;28;20387;-72
2021/08/01 05:04:31;;;;;;;;;;;;;;;20.40;54.85;98722.97;5041610;28;19940;-73
2021/08/01 05:06:59;;;;;;;;;;;;;;;20.48;54.85;98735.84;5038801;28;19964;-74
2021/08/01 05:09:25;;;;;;;;;;;;;;;20.55;54.99;98735.16;5049880;28;20195;-73
2021/08/01 05:11:52;;;;;;;;;;;;;;;20.63;54.88;98739.66;5039536;28;19925;-70
2021/08/01 05:14:18;;;;;;;;;;;;;;;20.75;54.38;98735.91;5043992;28;20023;-71
2021/08/01 05:16:44;;;;;;;;;;;;;;;20.83;54.52;98739.63;5033111;28;19929;-72
2021/08/01 05:19:10;;;;;;;;;;;;;;;20.89;54.30;98734.59;5046118;28;19983;-74
2021/08/01 05:21:36;;;;;;;;;;;;;;;20.96;54.26;98735.50;5042071;28;19924;-72
2021/08/01 05:24:01;;;;;;;;;;;;;;;21.00;54.07;98729.22;5037805;28;20381;-72
2021/08/01 05:26:27;;;;;;;;;;;;;;;21.04;53.76;98736.44;5039498;28;19931;-73
2021/08/01 05:28:54;;;;;;;;;;;;;;;21.04;52.99;98730.88;5038688;28;19924;-71
2021/08/01 05:31:20;;;;;;;;;;;;;;;21.04;53.01;98730.88;5033614;28;20006;-73
2021/08/01 05:33:46;;;;;;;;;;;;;;;21.07;52.89;98726.56;5034903;28;19924;-73
2021/08/01 05:36:11;;;;;;;;;;;;;;;21.15;53.09;98730.25;5037135;28;19925;-72
2021/08/01 05:38:38;;;;;;;;;;;;;;;21.18;52.47;98730.31;5034789;28;20368;-71
2021/08/01 05:41:04;;;;;;;;;;;;;;;21.17;52.20;98737.06;5036368;28;19925;-72
2021/08/01 05:43:30;;;;;;;;;;;;;;;21.15;52.27;98730.25;5039542;28;20379;-71
2021/08/01 05:45:58;;;;;;;;;;;;;;;21.20;52.15;98729.94;5036754;28;20036;-73
2021/08/01 05:48:23;;;;;;;;;;;;;;;21.22;52.11;98733.13;5034298;28;19945;-72
2021/08/01 05:50:50;;;;;;;;;;;;;;;21.28;52.18;98740.00;5035507;28;19925;-72
2021/08/01 05:53:20;;;;;;;;;;;;;;;21.36;51.92;98740.91;5041508;28;19940;-72
2021/08/01 05:55:46;;;;;;;;;;;;;;;21.41;51.58;98739.78;5048641;28;19960;-72
2021/08/01 05:58:11;;;;;;;;;;;;;;;21.46;51.49;98745.03;5041091;28;19967;-72
2021/08/01 06:00:37;;;;;;;;;;;;;;;21.51;51.30;98745.50;5037319;28;19932;-71
2021/08/01 06:03:04;;;;;;;;;;;;;;;21.58;51.43;98746.78;5035063;28;19952;-72
2021/08/01 06:05:30;;;;;;;;;;;;;;;21.65;51.61;98756.06;5038735;28;19929;-73
2021/08/01 06:07:56;;;;;;;;;;;;;;;21.71;51.23;98770.44;5027355;28;19929;-72
2021/08/01 06:10:22;;;;;;;;;;;;;;;21.75;50.95;98751.81;5039874;28;19924;-72
2021/08/01 06:12:48;;;;;;;;;;;;;;;21.80;50.59;98750.69;5041522;28;19924;-73
2021/08/01 06:15:14;;;;;;;;;;;;;;;21.85;50.36;98761.50;5044164;28;20459;-72
2021/08/01 06:17:40;;;;;;;;;;;;;;;21.87;49.89;98770.28;5044577;28;19936;-73
2021/08/01 06:20:07;;;;;;;;;;;;;;;21.92;49.51;98766.34;5023508;28;19932;-72
2021/08/01 06:22:35;;;;;;;;;;;;;;;21.99;49.46;98769.25;5043021;28;19924;-72
2021/08/01 06:25:02;;;;;;;;;;;;;;;22.09;49.51;98759.44;5039042;28;20017;-72
2021/08/01 06:27:29;;;;;;;;;;;;;;;22.17;49.31;98766.69;5044253;28;20393;-72
2021/08/01 06:29:55;;;;;;;;;;;;;;;22.26;49.29;98762.81;5043933;28;19932;-73
2021/08/01 06:32:20;;;;;;;;;;;;;;;22.33;49.13;98769.25;5026214;28;19998;-71
2021/08/01 06:34:46;;;;;;;;;;;;;;;22.42;49.46;98757.81;5043019;28;19931;-72
2021/08/01 06:37:14;;;;;;;;;;;;;;;22.49;49.06;98754.34;5029241;28;19956;-71
2021/08/01 06:39:42;;;;;;;;;;;;;;;22.59;48.92;98752.84;5031721;28;20397;-72
2021/08/01 06:42:08;;;;;;;;;;;;;;;22.65;48.72;98751.34;5043852;28;19925;-71
2021/08/01 06:44:35;;;;;;;;;;;;;;;22.71;48.17;98749.81;5025109;28;19937;-72
2021/08/01 06:47:00;;;;;;;;;;;;;;;22.77;48.45;98748.25;5038103;28;19940;-71
2021/08/01 06:49:26;;;;;;;;;;;;;;;22.82;47.46;98743.53;5036916;28;20023;-72
2021/08/01 06:51:52;;;;;;;;;;;;;;;22.83;46.73;98761.88;5025240;28;19925;-72
2021/08/01 06:54:19;;;;;;;;;;;;;;;22.85;46.90;98751.91;5041608;28;19929;-72
2021/08/01 06:56:45;;;;;;;;;;;;;;;22.90;46.56;98750.78;5033028;28;19929;-70
2021/08/01 06:59:11;;;;;;;;;;;;;;;22.93;46.89;98756.38;5046725;28;19925;-70
2021/08/01 07:01:38;;;;;;;;;;;;;;;22.99;47.01;98750.44;5031066;28;20369;-71
2021/08/01 07:04:04;;;;;;;;;;;;;;;23.06;46.96;98758.88;5032442;28;19971;-71
2021/08/01 07:06:29;;;;;;;;;;;;;;;23.11;46.61;98752.94;5034364;28;19932;-70
2021/08/01 07:08:55;;;;;;;;;;;;;;;23.19;45.97;98745.44;5048775;28;19931;-70
2021/08/01 07:11:22;;;;;;;;;;;;;;;23.26;45.59;98739.97;5044288;28;19932;-70
2021/08/01 07:13:48;;;;;;;;;;;;;;;23.33;44.97;98742.00;5044983;28;19929;-71
2021/08/01 07:16:14;;;;;;;;;;;;;;;23.40;44.89;98739.25;5044680;28;19931;-72
2021/08/01 07:18:40;;;;;;;;;;;;;;;23.44;44.80;98737.28;5051263;28;19971;-72
2021/08/01 07:21:06;;;;;;;;;;;;;;;23.50;44.06;98743.31;5051364;28;19931;-70
2021/08/01 07:23:31;;;;;;;;;;;;;;;23.54;44.20;98740.56;5046453;28;19979;-71
2021/08/01 07:25:57;;;;;;;;;;;;;;;23.58;44.08;98742.19;5047310;28;19925;-73
2021/08/01 07:28:25;;;;;;;;;;;;;;;23.62;44.13;98742.19;5048428;28;20031;-73
2021/08/01 07:30:52;;;;;;;;;;;;;;;23.66;43.88;98737.44;5050950;28;20019;-73
2021/08/01 07:33:18;;;;;;;;;;;;;;;23.68;44.08;98746.22;5035990;28;20403;-73
2021/08/01 07:35:44;;;;;;;;;;;;;;;23.70;44.06;98738.25;5052431;28;19948;-72
2021/08/01 07:38:10;;;;;;;;;;;;;;;23.71;44.00;98739.03;5050885;28;19932;-73
2021/08/01 07:40:35;;;;;;;;;;;;;;;23.74;44.17;98736.28;5046266;28;20023;-72
2021/08/01 07:43:01;;;;;;;;;;;;;;;23.80;44.26;98736.72;5033607;28;19929;-70
2021/08/01 07:45:34;;;;;;;;;;;;;;;23.83;44.08;98743.50;5044856;28;20337;-72
2021/08/01 07:48:00;;;;;;;;;;;;;;;23.84;44.03;98731.94;5052461;28;19929;-71
2021/08/01 07:50:26;;;;;;;;;;;;;;;23.86;44.14;98734.34;5042814;28;20015;-72
2021/08/01 07:52:52;;;;;;;;;;;;;;;23.86;44.29;98737.16;5041500;28;20416;-79
2021/08/01 07:55:20;;;;;;;;;;;;;;;23.84;44.26;98731.94;5021818;28;19924;-77
2021/08/01 07:57:47;;;;;;;;;;;;;;;23.84;44.02;98729.16;5031118;28;20034;-80
2021/08/01 08:00:13;;;;;;;;;;;;;;;23.85;44.52;98729.97;5033435;28;20023;-78
2021/08/01 08:02:40;;;;;;;;;;;;;;;23.84;44.61;98733.94;5029363;28;19925;-78
2021/08/01 08:05:07;;;;;;;;;;;;;;;23.85;44.57;98732.75;5024698;28;20411;-78
2021/08/01 08:07:33;;;;;;;;;;;;;;;23.81;44.62;98738.31;5030675;28;20358;-77
2021/08/01 08:09:59;;;;;;;;;;;;;;;23.78;44.45;98731.50;5023219;28;20297;-78
2021/08/01 08:12:25;;;;;;;;;;;;;;;23.78;44.72;98744.69;5037855;28;19925;-78
2021/08/01 08:14:51;;;;;;;;;;;;;;;23.78;44.79;98744.69;5046866;28;19929;-82
2021/08/01 08:17:17;;;;;;;;;;;;;;;23.77;45.13;98743.09;5025273;28;19925;-78
2021/08/01 08:19:44;;;;;;;;;;;;;;;23.77;44.91;98743.88;5029898;28;20024;-78
2021/08/01 08:22:12;;;;;;;;;;;;;;;23.76;44.75;98750.63;5053060;28;19971;-78
2021/08/01 08:24:38;;;;;;;;;;;;;;;23.76;44.80;98753.44;5053691;28;19925;-79
2021/08/01 08:27:04;;;;;;;;;;;;;;;23.77;44.74;98754.25;5038957;28;20435;-81
2021/08/01 08:29:30;;;;;;;;;;;;;;;23.78;44.83;98767.78;5063697;28;19932;-79
2021/08/01 08:31:55;;;;;;;;;;;;;;;23.76;44.98;98767.38;5047252;28;19986;-73
2021/08/01 08:34:23;;;;;;;;;;;;;;;23.77;45.18;98776.56;5049406;28;20423;-72
2021/08/01 08:36:52;;;;;;;;;;;;;;;23.78;45.31;98762.22;5054154;28;20039;-71
2021/08/01 08:39:19;;;;;;;;;;;;;;;23.81;45.31;98757.06;5050358;28;19929;-70
2021/08/01 08:41:45;;;;;;;;;;;;;;;23.84;45.41;98756.28;5034507;28;20019;-72
2021/08/01 08:44:11;;;;;;;;;;;;;;;23.84;45.47;98761.84;5036082;28;20035;-72
2021/08/01 08:46:38;;;;;;;;;;;;;;;23.85;45.31;98752.28;5057430;28;20024;-69
2021/08/01 08:49:06;;;;;;;;;;;;;;;23.88;45.32;98766.28;5044638;28;19932;-71
2021/08/01 08:51:33;;;;;;;;;;;;;;;23.90;45.47;98757.50;5035087;28;20316;-72
2021/08/01 08:54:01;;;;;;;;;;;;;;;23.91;45.56;98754.31;5034415;28;19931;-70
2021/08/01 08:56:27;;;;;;;;;;;;;;;23.92;45.70;98746.72;5035215;28;19925;-72
2021/08/01 08:58:53;;;;;;;;;;;;;;;23.93;45.43;98745.53;5042271;28;20037;-72
2021/08/01 09:01:19;;;;;;;;;;;;;;;23.94;45.43;98744.34;5031922;28;20424;-72
2021/08/01 09:03:46;;;;;;;;;;;;;;;23.97;45.26;98740.78;5044072;28;20019;-73
2021/08/01 09:06:12;;;;;;;;;;;;;;;23.98;45.32;98736.00;5038887;28;19964;-71
2021/08/01 09:08:38;;;;;;;;;;;;;;;24.00;45.22;98744.78;5046920;28;20405;-72
2021/08/01 09:11:05;;;;;;;;;;;;;;;24.01;45.22;98738.81;5034340;28;19925;-73
2021/08/01 09:13:44;;;;;;;;;;;;;;;24.03;45.65;98733.66;5034916;28;19935;-71
2021/08/01 09:16:10;;;;;;;;;;;;;;;24.04;45.87;98738.06;5045062;28;20025;-69
2021/08/01 09:18:35;;;;;;;;;;;;;;;24.03;45.67;98739.25;5037503;28;20412;-72
2021/08/01 09:21:01;;;;;;;;;;;;;;;24.00;45.27;98739.19;5039477;28;19925;-72
2021/08/01 09:23:27;;;;;;;;;;;;;;;23.95;45.34;98740.38;5031984;28;19925;-72
2021/08/01 09:25:56;;;;;;;;;;;;;;;23.96;45.31;98735.59;5032299;28;20300;-71
2021/08/01 09:28:24;;;;;;;;;;;;;;;23.98;45.14;98727.63;5035609;28;20024;-72
2021/08/01 09:30:52;;;;;;;;;;;;;;;23.96;45.02;98728.00;5054241;28;19928;-72
2021/08/01 09:33:30;;;;;;;;;;;;;;;23.94;45.09;98731.22;5036436;28;19970;-72
2021/08/01 09:36:03;;;;;;;;;;;;;;;23.93;44.85;98745.53;5045564;28;20130;-72
2021/08/01 09:38:32;;;;;;;;;;;;;;;23.91;44.86;98756.31;5036551;28;20004;-72
2021/08/01 09:41:02;;;;;;;;;;;;;;;23.89;45.30;98778.22;5033078;28;19925;-72
2021/08/01 09:43:32;;;;;;;;;;;;;;;23.84;45.74;98786.97;5036543;28;19924;-72
2021/08/01 09:46:01;;;;;;;;;;;;;;;23.82;45.79;98767.81;5039723;28;19925;-71
2021/08/01 09:48:26;;;;;;;;;;;;;;;23.81;45.70;98774.59;5044863;28;19960;-72
2021/08/01 09:50:59;;;;;;;;;;;;;;;23.79;46.25;98777.75;5052888;28;20002;-72
2021/08/01 09:53:25;;;;;;;;;;;;;;;23.79;46.31;98783.34;5047099;28;19931;-72
2021/08/01 09:56:06;;;;;;;;;;;;;;;23.75;46.52;98796.47;5015658;28;19935;-72
2021/08/01 09:58:36;;;;;;;;;;;;;;;23.70;46.88;98802.44;5036405;28;20331;-72
2021/08/01 10:01:02;;;;;;;;;;;;;;;23.66;46.97;98801.59;5052471;28;19994;-72
2021/08/01 10:03:33;;;;;;;;;;;;;;;23.62;47.38;98793.22;5045945;28;19979;-71
2021/08/01 10:06:05;;;;;;;;;;;;;;;23.62;47.54;98803.56;5052518;28;19925;-72
2021/08/01 10:08:35;;;;;;;;;;;;;;;23.57;48.32;98795.56;5035906;28;20035;-71
2021/08/01 10:11:07;;;;;;;;;;;;;;;23.60;48.22;98811.50;5044902;28;21877;-71
2021/08/01 10:13:32;;;;;;;;;;;;;;;23.55;48.53;98818.25;5037060;28;19956;-72
2021/08/01 10:16:00;;;;;;;;;;;;;;;23.60;48.43;98831.84;5052375;28;19966;-73
2021/08/01 10:18:25;;;;;;;;;;;;;;;23.62;47.95;98806.34;5052458;28;19931;-72
2021/08/01 10:20:52;;;;;;;;;;;;;;;23.60;48.22;98812.31;5047862;28;20301;-72
2021/08/01 10:23:18;;;;;;;;;;;;;;;23.69;48.05;98813.97;5018841;28;19929;-72
2021/08/01 10:25:45;;;;;;;;;;;;;;;23.63;48.65;98805.16;5039895;28;20012;-71
2021/08/01 10:28:11;;;;;;;;;;;;;;;23.70;48.62;98799.63;5033356;28;20456;-71
2021/08/01 10:30:38;;;;;;;;;;;;;;;23.72;48.83;98808.41;5043591;28;19937;-72
2021/08/01 10:33:06;;;;;;;;;;;;;;;23.68;49.10;98801.19;5040980;28;19928;-71
2021/08/01 10:35:36;;;;;;;;;;;;;;;23.58;50.13;98802.72;5045741;28;20401;-71
2021/08/01 10:38:03;;;;;;;;;;;;;;;23.62;49.75;98778.44;5032517;28;20424;-72
2021/08/01 10:40:31;;;;;;;;;;;;;;;23.73;49.63;98787.69;5032867;28;19925;-71
2021/08/01 10:42:59;;;;;;;;;;;;;;;23.55;50.90;98784.00;5046924;28;19928;-71
2021/08/01 10:45:25;;;;;;;;;;;;;;;23.47;51.42;98789.50;5052572;28;19925;-70
2021/08/01 10:47:52;;;;;;;;;;;;;;;23.55;51.06;98765.25;5031566;28;20381;-71
2021/08/01 10:50:21;;;;;;;;;;;;;;;23.65;50.46;98741.44;5038754;28;20343;-71
2021/08/01 10:52:47;;;;;;;;;;;;;;;23.68;50.69;98732.28;5036507;28;19971;-71
2021/08/01 10:55:21;;;;;;;;;;;;;;;23.75;50.37;98746.25;5050891;28;19924;-73
2021/08/01 10:58:08;;;;;;;;;;;;;;;23.76;50.98;98747.06;5031567;28;19925;-71
2021/08/01 11:00:56;;;;;;;;;;;;;;;23.70;51.33;98731.88;5031617;28;20377;-71
2021/08/01 11:03:22;;;;;;;;;;;;;;;23.65;51.32;98705.16;5047904;28;20011;-71
2021/08/01 11:05:50;;;;;;;;;;;;;;;23.67;51.16;98688.81;5006997;28;19930;-72
2021/08/01 11:08:16;;;;;;;;;;;;;;;23.72;51.27;98677.28;5034459;28;20543;-72
2021/08/01 11:10:43;;;;;;;;;;;;;;;23.71;51.23;98672.91;5044990;28;19925;-71
2021/08/01 11:13:28;;;;;;;;;;;;;;;23.71;51.14;98672.91;5042345;28;19929;-71
2021/08/01 11:15:54;;;;;;;;;;;;;;;23.69;51.70;98683.66;5046966;28;19967;-71
2021/08/01 11:18:28;;;;;;;;;;;;;;;23.65;51.95;98677.25;5048292;28;19928;-72
2021/08/01 11:20:56;;;;;;;;;;;;;;;23.60;52.67;98684.00;5038115;28;20372;-72
2021/08/01 11:23:42;;;;;;;;;;;;;;;23.59;52.45;98685.19;5026838;28;19925;-71
2021/08/01 11:26:09;;;;;;;;;;;;;;;23.59;52.85;98685.19;5003204;28;19929;-71
2021/08/01 11:28:35;;;;;;;;;;;;;;;23.59;53.03;98685.19;5027258;28;19928;-70
2021/08/01 11:31:23;;;;;;;;;;;;;;;23.60;52.87;98695.16;5031690;28;19936;-72
2021/08/01 11:33:50;;;;;;;;;;;;;;;23.58;53.22;98688.38;5031867;28;19963;-71
2021/08/01 11:36:21;;;;;;;;;;;;;;;23.58;53.20;98691.97;5015818;28;19932;-71
2021/08/01 11:39:00;;;;;;;;;;;;;;;23.57;53.17;98692.34;5034118;28;19978;-72
2021/08/01 11:41:34;;;;;;;;;;;;;;;23.54;53.66;98705.06;5030380;28;20015;-71
2021/08/01 11:44:01;;;;;;;;;;;;;;;23.53;53.69;98688.75;5041782;28;20023;-72
2021/08/01 11:46:27;;;;;;;;;;;;;;;23.49;53.78;98703.47;5040028;28;19925;-72
2021/08/01 11:48:56;;;;;;;;;;;;;;;23.44;54.31;98703.03;5040349;28;20402;-72
2021/08/01 11:51:25;;;;;;;;;;;;;;;23.35;54.80;98712.53;5043571;28;19925;-72
2021/08/01 11:53:51;;;;;;;;;;;;;;;23.27;55.16;98721.25;5033090;28;19929;-72
2021/08/01 11:56:18;;;;;;;;;;;;;;;23.19;55.50;98739.88;5030700;28;19931;-73
2021/08/01 11:58:45;;;;;;;;;;;;;;;23.09;56.19;98756.13;5035860;28;20411;-72
2021/08/01 12:01:14;;;;;;;;;;;;;;;22.96;56.87;98760.41;5044493;28;19975;-71
2021/08/01 12:03:41;;;;;;;;;;;;;;;22.90;57.44;98768.31;5040409;28;19925;-71
2021/08/01 12:06:07;;;;;;;;;;;;;;;22.80;58.27;98741.94;5022282;28;20447;-71
2021/08/01 12:08:35;;;;;;;;;;;;;;;22.65;59.55;98731.84;5035016;28;20389;-72
2021/08/01 12:11:07;;;;;;;;;;;;;;;22.61;60.04;98750.50;5017185;28;20309;-72
2021/08/01 12:13:33;;;;;;;;;;;;;;;22.51;60.72;98763.94;5025934;28;19925;-72
2021/08/01 12:15:59;;;;;;;;;;;;;;;22.49;61.10;98744.03;5031165;28;19979;-73
2021/08/01 12:18:26;;;;;;;;;;;;;;;22.47;62.10;98742.75;5045894;28;19929;-72
2021/08/01 12:20:51;;;;;;;;;;;;;;;22.35;62.67;98727.13;5036739;28;20298;-71